sensor_id;sensor_type;location;lat;lon;timestamp;pressure;altitude;pressure_sealevel;temperature;humidity
38786;BME280;24535;45.508;12.252;2023-08-01T00:00:55;100859.91;;;28.19;57.85
38786;BME280;24535;45.508;12.252;2023-08-01T00:03:27;100856.59;;;28.17;57.93
38786;BME280;24535;45.508;12.252;2023-08-01T00:05:52;100851.59;;;28.14;57.97
38786;BME280;24535;45.508;12.252;2023-08-01T00:08:19;100851.19;;;28.10;58.10
38786;BME280;24535;45.508;12.252;2023-08-01T00:10:45;100846.44;;;28.06;58.26
38786;BME280;24535;45.508;12.252;2023-08-01T00:13:10;100846.66;;;28.04;58.28
38786;BME280;24535;45.508;12.252;2023-08-01T00:15:36;100846.84;;;28.03;58.35
38786;BME280;24535;45.508;12.252;2023-08-01T00:18:06;100838.31;;;27.99;58.36
38786;BME280;24535;45.508;12.252;2023-08-01T00:20:32;100834.19;;;27.97;58.40
38786;BME280;24535;45.508;12.252;2023-08-01T00:22:57;100831.66;;;27.95;58.21
38786;BME280;24535;45.508;12.252;2023-08-01T00:25:23;100824.81;;;27.93;58.36
38786;BME280;24535;45.508;12.252;2023-08-01T00:27:48;100807.94;;;27.91;58.39
38786;BME280;24535;45.508;12.252;2023-08-01T00:30:13;100810.88;;;27.89;58.88
38786;BME280;24535;45.508;12.252;2023-08-01T00:32:42;100806.09;;;27.84;58.56
38786;BME280;24535;45.508;12.252;2023-08-01T00:35:12;100806.94;;;27.85;58.86
38786;BME280;24535;45.508;12.252;2023-08-01T00:37:38;100802.78;;;27.82;58.66
38786;BME280;24535;45.508;12.252;2023-08-01T00:40:06;100805.47;;;27.82;58.62
38786;BME280;24535;45.508;12.252;2023-08-01T00:42:52;100808.63;;;27.79;58.77
38786;BME280;24535;45.508;12.252;2023-08-01T00:45:32;100802.59;;;27.77;58.77
38786;BME280;24535;45.508;12.252;2023-08-01T00:47:58;100795.53;;;27.76;58.78
38786;BME280;24535;45.508;12.252;2023-08-01T00:50:32;100800.09;;;27.76;59.01
38786;BME280;24535;45.508;12.252;2023-08-01T00:52:57;100791.16;;;27.75;59.08
38786;BME280;24535;45.508;12.252;2023-08-01T00:55:23;100787.59;;;27.75;58.88
38786;BME280;24535;45.508;12.252;2023-08-01T00:57:55;100785.75;;;27.75;58.91
38786;BME280;24535;45.508;12.252;2023-08-01T01:00:20;100784.69;;;27.76;58.56
38786;BME280;24535;45.508;12.252;2023-08-01T01:02:46;100785.75;;;27.75;59.00
38786;BME280;24535;45.508;12.252;2023-08-01T01:05:11;100773.22;;;27.74;58.64
38786;BME280;24535;45.508;12.252;2023-08-01T01:07:38;100778.66;;;27.74;58.92
38786;BME280;24535;45.508;12.252;2023-08-01T01:10:04;100782.19;;;27.75;58.95
38786;BME280;24535;45.508;12.252;2023-08-01T01:12:29;100767.81;;;27.74;59.00
38786;BME280;24535;45.508;12.252;2023-08-01T01:14:55;100761.56;;;27.74;58.87
38786;BME280;24535;45.508;12.252;2023-08-01T01:17:20;100763.22;;;27.75;58.73
38786;BME280;24535;45.508;12.252;2023-08-01T01:19:48;100763.22;;;27.75;58.87
38786;BME280;24535;45.508;12.252;2023-08-01T01:22:13;100758.22;;;27.72;58.85
38786;BME280;24535;45.508;12.252;2023-08-01T01:24:40;100764.47;;;27.72;58.81
38786;BME280;24535;45.508;12.252;2023-08-01T01:27:06;100760.13;;;27.71;58.99
38786;BME280;24535;45.508;12.252;2023-08-01T01:29:32;100754.69;;;27.71;58.99
38786;BME280;24535;45.508;12.252;2023-08-01T01:31:59;100747.22;;;27.73;58.95
38786;BME280;24535;45.508;12.252;2023-08-01T01:34:25;100740.09;;;27.79;58.92
38786;BME280;24535;45.508;12.252;2023-08-01T01:36:51;100747.59;;;27.83;58.81
38786;BME280;24535;45.508;12.252;2023-08-01T01:39:16;100736.94;;;27.82;58.64
38786;BME280;24535;45.508;12.252;2023-08-01T01:41:41;100740.94;;;27.79;58.66
38786;BME280;24535;45.508;12.252;2023-08-01T01:44:07;100730.31;;;27.78;58.68
38786;BME280;24535;45.508;12.252;2023-08-01T01:46:32;100731.59;;;27.75;58.69
38786;BME280;24535;45.508;12.252;2023-08-01T01:48:57;100727.19;;;27.74;58.88
38786;BME280;24535;45.508;12.252;2023-08-01T01:51:25;100726.38;;;27.74;58.67
38786;BME280;24535;45.508;12.252;2023-08-01T01:53:50;100726.53;;;27.79;58.71
38786;BME280;24535;45.508;12.252;2023-08-01T01:56:16;100727.19;;;27.81;58.82
38786;BME280;24535;45.508;12.252;2023-08-01T01:58:41;100712.81;;;27.80;58.73
38786;BME280;24535;45.508;12.252;2023-08-01T02:01:06;100703.47;;;27.76;58.62
38786;BME280;24535;45.508;12.252;2023-08-01T02:03:32;100710.13;;;27.74;58.76
38786;BME280;24535;45.508;12.252;2023-08-01T02:05:57;100717.44;;;27.73;58.93
38786;BME280;24535;45.508;12.252;2023-08-01T02:08:22;100717.81;;;27.70;58.82
38786;BME280;24535;45.508;12.252;2023-08-01T02:10:48;100714.09;;;27.71;59.01
38786;BME280;24535;45.508;12.252;2023-08-01T02:13:16;100703.44;;;27.70;58.85
38786;BME280;24535;45.508;12.252;2023-08-01T02:15:42;100718.63;;;27.71;58.87
38786;BME280;24535;45.508;12.252;2023-08-01T02:18:07;100723.88;;;27.72;58.84
38786;BME280;24535;45.508;12.252;2023-08-01T02:20:32;100713.47;;;27.69;58.64
38786;BME280;24535;45.508;12.252;2023-08-01T02:22:58;100701.41;;;27.65;58.83
38786;BME280;24535;45.508;12.252;2023-08-01T02:25:23;100694.53;;;27.63;58.85
38786;BME280;24535;45.508;12.252;2023-08-01T02:27:49;100681.22;;;27.61;59.01
38786;BME280;24535;45.508;12.252;2023-08-01T02:30:14;100689.75;;;27.58;59.11
38786;BME280;24535;45.508;12.252;2023-08-01T02:32:40;100687.28;;;27.56;59.14
38786;BME280;24535;45.508;12.252;2023-08-01T02:35:08;100675.81;;;27.54;59.26
38786;BME280;24535;45.508;12.252;2023-08-01T02:37:33;100672.53;;;27.52;58.99
38786;BME280;24535;45.508;12.252;2023-08-01T02:39:59;100670.88;;;27.51;59.28
38786;BME280;24535;45.508;12.252;2023-08-01T02:42:33;100675.66;;;27.49;59.25
38786;BME280;24535;45.508;12.252;2023-08-01T02:45:01;100666.09;;;27.47;58.93
38786;BME280;24535;45.508;12.252;2023-08-01T02:47:26;100655.47;;;27.45;59.01
38786;BME280;24535;45.508;12.252;2023-08-01T02:49:52;100655.06;;;27.42;58.73
38786;BME280;24535;45.508;12.252;2023-08-01T02:52:17;100658.22;;;27.39;59.29
38786;BME280;24535;45.508;12.252;2023-08-01T02:54:42;100645.13;;;27.35;59.65
38786;BME280;24535;45.508;12.252;2023-08-01T02:57:08;100659.09;;;27.32;59.67
38786;BME280;24535;45.508;12.252;2023-08-01T02:59:33;100660.31;;;27.30;59.91
38786;BME280;24535;45.508;12.252;2023-08-01T03:01:59;100659.50;;;27.29;59.45
38786;BME280;24535;45.508;12.252;2023-08-01T03:04:24;100652.44;;;27.28;59.61
38786;BME280;24535;45.508;12.252;2023-08-01T03:06:50;100652.84;;;27.25;59.54
38786;BME280;24535;45.508;12.252;2023-08-01T03:09:15;100654.75;;;27.25;59.45
38786;BME280;24535;45.508;12.252;2023-08-01T03:11:41;100659.53;;;27.23;59.69
38786;BME280;24535;45.508;12.252;2023-08-01T03:14:06;100671.38;;;27.22;59.64
38786;BME280;24535;45.508;12.252;2023-08-01T03:16:31;100668.91;;;27.20;59.73
38786;BME280;24535;45.508;12.252;2023-08-01T03:18:57;100667.25;;;27.19;59.81
38786;BME280;24535;45.508;12.252;2023-08-01T03:21:22;100673.06;;;27.23;59.75
38786;BME280;24535;45.508;12.252;2023-08-01T03:23:47;100671.78;;;27.25;59.91
38786;BME280;24535;45.508;12.252;2023-08-01T03:26:13;100671.38;;;27.28;59.70
38786;BME280;24535;45.508;12.252;2023-08-01T03:28:40;100671.78;;;27.32;59.68
38786;BME280;24535;45.508;12.252;2023-08-01T03:31:05;100664.50;;;27.32;59.47
38786;BME280;24535;45.508;12.252;2023-08-01T03:33:34;100661.78;;;27.32;59.48
38786;BME280;24535;45.508;12.252;2023-08-01T03:35:59;100660.13;;;27.31;59.52
38786;BME280;24535;45.508;12.252;2023-08-01T03:38:24;100662.00;;;27.31;59.70
38786;BME280;24535;45.508;12.252;2023-08-01T03:40:50;100656.19;;;27.27;59.49
38786;BME280;24535;45.508;12.252;2023-08-01T03:43:24;100649.97;;;27.27;59.53
38786;BME280;24535;45.508;12.252;2023-08-01T03:45:50;100644.75;;;27.25;59.24
38786;BME280;24535;45.508;12.252;2023-08-01T03:48:18;100652.84;;;27.25;59.18
38786;BME280;24535;45.508;12.252;2023-08-01T03:50:46;100646.84;;;27.23;59.20
38786;BME280;24535;45.508;12.252;2023-08-01T03:53:11;100654.34;;;27.21;59.27
38786;BME280;24535;45.508;12.252;2023-08-01T03:55:36;100653.28;;;27.22;59.53
38786;BME280;24535;45.508;12.252;2023-08-01T03:58:02;100660.78;;;27.20;59.56
38786;BME280;24535;45.508;12.252;2023-08-01T04:00:27;100663.50;;;27.20;59.86
38786;BME280;24535;45.508;12.252;2023-08-01T04:02:57;100662.03;;;27.24;59.75
38786;BME280;24535;45.508;12.252;2023-08-01T04:05:22;100666.16;;;27.33;59.57
38786;BME280;24535;45.508;12.252;2023-08-01T04:07:49;100666.53;;;27.44;59.53
38786;BME280;24535;45.508;12.252;2023-08-01T04:10:17;100665.88;;;27.48;58.91
38786;BME280;24535;45.508;12.252;2023-08-01T04:12:43;100656.94;;;27.48;59.30
38786;BME280;24535;45.508;12.252;2023-08-01T04:15:08;100651.53;;;27.48;59.01
38786;BME280;24535;45.508;12.252;2023-08-01T04:17:34;100649.88;;;27.47;58.99
38786;BME280;24535;45.508;12.252;2023-08-01T04:19:59;100644.66;;;27.45;59.39
38786;BME280;24535;45.508;12.252;2023-08-01T04:22:30;100639.47;;;27.44;59.21
38786;BME280;24535;45.508;12.252;2023-08-01T04:24:55;100637.78;;;27.43;59.55
38786;BME280;24535;45.508;12.252;2023-08-01T04:27:21;100627.19;;;27.41;59.35
38786;BME280;24535;45.508;12.252;2023-08-01T04:29:47;100623.88;;;27.39;59.07
38786;BME280;24535;45.508;12.252;2023-08-01T04:32:12;100624.09;;;27.38;59.07
38786;BME280;24535;45.508;12.252;2023-08-01T04:34:38;100619.09;;;27.34;59.34
38786;BME280;24535;45.508;12.252;2023-08-01T04:37:04;100621.19;;;27.32;59.22
38786;BME280;24535;45.508;12.252;2023-08-01T04:39:36;100616.00;;;27.31;59.20
38786;BME280;24535;45.508;12.252;2023-08-01T04:45:17;100616.84;;;27.31;59.34
38786;BME280;24535;45.508;12.252;2023-08-01T04:47:42;100616.00;;;27.31;59.39
38786;BME280;24535;45.508;12.252;2023-08-01T04:50:07;100620.38;;;27.32;59.35
38786;BME280;24535;45.508;12.252;2023-08-01T04:52:32;100616.84;;;27.31;59.43
38786;BME280;24535;45.508;12.252;2023-08-01T04:54:58;100609.56;;;27.32;59.83
38786;BME280;24535;45.508;12.252;2023-08-01T04:57:23;100606.03;;;27.31;59.92
38786;BME280;24535;45.508;12.252;2023-08-01T04:59:50;100612.03;;;27.33;59.76
38786;BME280;24535;45.508;12.252;2023-08-01T05:02:16;100604.53;;;27.35;59.65
38786;BME280;24535;45.508;12.252;2023-08-01T05:04:41;100603.25;;;27.38;59.53
38786;BME280;24535;45.508;12.252;2023-08-01T05:07:06;100604.94;;;27.39;59.94
38786;BME280;24535;45.508;12.252;2023-08-01T05:18:00;100605.50;;;27.48;59.73
38786;BME280;24535;45.508;12.252;2023-08-01T05:25:36;100595.84;;;27.58;59.38
38786;BME280;24535;45.508;12.252;2023-08-01T05:30:36;100598.28;;;27.67;59.46
38786;BME280;24535;45.508;12.252;2023-08-01T05:33:04;100604.09;;;27.70;59.50
38786;BME280;24535;45.508;12.252;2023-08-01T05:35:35;100597.44;;;27.73;59.36
38786;BME280;24535;45.508;12.252;2023-08-01T05:43:35;100572.41;;;27.84;59.42
38786;BME280;24535;45.508;12.252;2023-08-01T05:49:07;100566.16;;;27.83;59.27
38786;BME280;24535;45.508;12.252;2023-08-01T05:51:42;100566.34;;;27.82;59.39
38786;BME280;24535;45.508;12.252;2023-08-01T05:56:54;100568.00;;;27.83;59.78
38786;BME280;24535;45.508;12.252;2023-08-01T05:59:19;100567.19;;;27.82;59.68
38786;BME280;24535;45.508;12.252;2023-08-01T06:01:51;100567.81;;;27.84;59.80
38786;BME280;24535;45.508;12.252;2023-08-01T06:04:16;100566.75;;;27.85;59.69
38786;BME280;24535;45.508;12.252;2023-08-01T06:06:41;100564.03;;;27.85;59.71
38786;BME280;24535;45.508;12.252;2023-08-01T06:24:04;100561.88;;;28.19;59.17
38786;BME280;24535;45.508;12.252;2023-08-01T06:26:29;100559.78;;;28.21;59.24
38786;BME280;24535;45.508;12.252;2023-08-01T06:34:36;100555.81;;;28.24;58.98
38786;BME280;24535;45.508;12.252;2023-08-01T06:40:04;100560.16;;;28.25;58.88
38786;BME280;24535;45.508;12.252;2023-08-01T06:45:33;100563.69;;;28.25;58.98
38786;BME280;24535;45.508;12.252;2023-08-01T06:47:58;100555.13;;;28.28;59.00
38786;BME280;24535;45.508;12.252;2023-08-01T06:50:24;100545.94;;;28.29;58.75
38786;BME280;24535;45.508;12.252;2023-08-01T06:52:49;100553.00;;;28.30;59.15
38786;BME280;24535;45.508;12.252;2023-08-01T07:11:52;100589.69;;;28.76;58.21
38786;BME280;24535;45.508;12.252;2023-08-01T07:26:46;100567.97;;;29.13;57.64
38786;BME280;24535;45.508;12.252;2023-08-01T07:29:11;100559.22;;;29.11;57.19
38786;BME280;24535;45.508;12.252;2023-08-01T07:31:47;100563.81;;;29.11;57.17
38786;BME280;24535;45.508;12.252;2023-08-01T07:36:49;100572.66;;;29.06;57.25
38786;BME280;24535;45.508;12.252;2023-08-01T07:45:41;100534.34;;;29.14;57.08
38786;BME280;24535;45.508;12.252;2023-08-01T07:48:06;100535.25;;;29.08;56.97
38786;BME280;24535;45.508;12.252;2023-08-01T07:58:45;100553.22;;;29.09;57.18
38786;BME280;24535;45.508;12.252;2023-08-01T08:04:13;100548.09;;;29.01;56.92
38786;BME280;24535;45.508;12.252;2023-08-01T08:06:54;100544.78;;;28.99;57.13
38786;BME280;24535;45.508;12.252;2023-08-01T08:12:23;100552.03;;;29.05;57.37
38786;BME280;24535;45.508;12.252;2023-08-01T08:17:51;100523.72;;;29.13;56.65
38786;BME280;24535;45.508;12.252;2023-08-01T08:20:16;100515.94;;;29.16;56.54
38786;BME280;24535;45.508;12.252;2023-08-01T08:52:58;100490.13;;;30.38;55.31
38786;BME280;24535;45.508;12.252;2023-08-01T09:00:44;100486.56;;;30.37;55.22
38786;BME280;24535;45.508;12.252;2023-08-01T09:03:09;100483.50;;;30.34;55.17
38786;BME280;24535;45.508;12.252;2023-08-01T09:08:21;100473.81;;;30.26;54.75
38786;BME280;24535;45.508;12.252;2023-08-01T09:16:17;100470.78;;;30.22;55.48
38786;BME280;24535;45.508;12.252;2023-08-01T09:18:46;100462.63;;;30.22;55.02
38786;BME280;24535;45.508;12.252;2023-08-01T09:21:12;100455.31;;;30.23;55.17
38786;BME280;24535;45.508;12.252;2023-08-01T09:23:37;100451.75;;;30.22;55.30
38786;BME280;24535;45.508;12.252;2023-08-01T09:26:12;100452.22;;;30.19;54.66
38786;BME280;24535;45.508;12.252;2023-08-01T09:28:37;100451.88;;;30.16;54.83
38786;BME280;24535;45.508;12.252;2023-08-01T09:31:02;100454.47;;;30.11;54.93
38786;BME280;24535;45.508;12.252;2023-08-01T09:33:36;100455.50;;;30.10;55.07
38786;BME280;24535;45.508;12.252;2023-08-01T09:36:02;100453.63;;;30.10;54.85
38786;BME280;24535;45.508;12.252;2023-08-01T09:38:33;100455.03;;;30.13;55.51
38786;BME280;24535;45.508;12.252;2023-08-01T09:40:58;100449.16;;;30.16;55.19
38786;BME280;24535;45.508;12.252;2023-08-01T09:43:26;100440.03;;;30.22;55.46
38786;BME280;24535;45.508;12.252;2023-08-01T09:45:58;100426.56;;;30.27;55.05
38786;BME280;24535;45.508;12.252;2023-08-01T09:48:24;100419.34;;;30.33;55.37
38786;BME280;24535;45.508;12.252;2023-08-01T09:50:50;100420.03;;;30.40;54.92
38786;BME280;24535;45.508;12.252;2023-08-01T09:58:26;100416.97;;;30.65;54.66
38786;BME280;24535;45.508;12.252;2023-08-01T10:03:58;100415.88;;;30.77;54.29
38786;BME280;24535;45.508;12.252;2023-08-01T10:06:24;100409.38;;;30.78;54.16
38786;BME280;24535;45.508;12.252;2023-08-01T10:08:53;100400.97;;;30.80;53.89
38786;BME280;24535;45.508;12.252;2023-08-01T10:14:21;100400.81;;;30.87;54.58
38786;BME280;24535;45.508;12.252;2023-08-01T10:33:22;100380.78;;;30.93;54.23
38786;BME280;24535;45.508;12.252;2023-08-01T10:35:57;100372.63;;;30.93;54.22
38786;BME280;24535;45.508;12.252;2023-08-01T10:38:22;100364.47;;;30.93;54.24
38786;BME280;24535;45.508;12.252;2023-08-01T10:53:46;100367.25;;;30.81;54.24
38786;BME280;24535;45.508;12.252;2023-08-01T11:05:08;100351.56;;;30.71;54.56
38786;BME280;24535;45.508;12.252;2023-08-01T11:30:41;100342.47;;;30.66;54.37
38786;BME280;24535;45.508;12.252;2023-08-01T11:46:34;100301.53;;;30.72;54.96
38786;BME280;24535;45.508;12.252;2023-08-01T12:05:05;100289.78;;;30.84;54.66
38786;BME280;24535;45.508;12.252;2023-08-01T12:07:30;100282.66;;;30.83;54.75
38786;BME280;24535;45.508;12.252;2023-08-01T12:15:33;100265.84;;;30.86;54.82
38786;BME280;24535;45.508;12.252;2023-08-01T12:18:05;100260.41;;;30.86;54.93
38786;BME280;24535;45.508;12.252;2023-08-01T12:20:30;100253.66;;;30.88;54.87
38786;BME280;24535;45.508;12.252;2023-08-01T12:22:55;100243.34;;;30.90;54.66
38786;BME280;24535;45.508;12.252;2023-08-01T12:28:08;100236.00;;;30.91;54.25
38786;BME280;24535;45.508;12.252;2023-08-01T12:30:38;100228.69;;;30.91;54.39
38786;BME280;24535;45.508;12.252;2023-08-01T12:33:04;100229.50;;;30.92;54.73
38786;BME280;24535;45.508;12.252;2023-08-01T12:35:29;100238.22;;;30.94;54.71
38786;BME280;24535;45.508;12.252;2023-08-01T12:40:27;100226.03;;;30.96;54.62
38786;BME280;24535;45.508;12.252;2023-08-01T12:42:52;100217.88;;;30.96;54.55
38786;BME280;24535;45.508;12.252;2023-08-01T12:47:53;100212.97;;;30.98;54.67
38786;BME280;24535;45.508;12.252;2023-08-01T12:50:18;100207.53;;;30.98;54.31
38786;BME280;24535;45.508;12.252;2023-08-01T12:55:46;100200.44;;;30.97;54.41
38786;BME280;24535;45.508;12.252;2023-08-01T12:58:12;100205.63;;;30.99;54.77
38786;BME280;24535;45.508;12.252;2023-08-01T13:03:40;100213.91;;;31.04;54.46
38786;BME280;24535;45.508;12.252;2023-08-01T13:06:06;100222.88;;;31.05;54.29
38786;BME280;24535;45.508;12.252;2023-08-01T13:08:31;100216.63;;;31.04;54.43
38786;BME280;24535;45.508;12.252;2023-08-01T13:10:56;100206.06;;;31.08;54.45
38786;BME280;24535;45.508;12.252;2023-08-01T13:13:24;100197.03;;;31.07;53.92
38786;BME280;24535;45.508;12.252;2023-08-01T13:15:49;100187.25;;;31.06;54.21
38786;BME280;24535;45.508;12.252;2023-08-01T13:26:55;100180.72;;;31.07;54.61
38786;BME280;24535;45.508;12.252;2023-08-01T13:32:35;100170.34;;;31.04;54.31
38786;BME280;24535;45.508;12.252;2023-08-01T13:35:00;100167.03;;;31.02;54.80
38786;BME280;24535;45.508;12.252;2023-08-01T13:37:26;100164.59;;;31.00;54.88
38786;BME280;24535;45.508;12.252;2023-08-01T13:40:10;100176.28;;;31.01;54.38
38786;BME280;24535;45.508;12.252;2023-08-01T13:45:39;100170.03;;;31.00;54.47
38786;BME280;24535;45.508;12.252;2023-08-01T13:48:05;100163.75;;;31.00;54.82
38786;BME280;24535;45.508;12.252;2023-08-01T13:53:36;100151.31;;;31.04;54.78
38786;BME280;24535;45.508;12.252;2023-08-01T13:56:06;100152.94;;;31.05;54.91
38786;BME280;24535;45.508;12.252;2023-08-01T13:58:32;100158.94;;;31.07;55.03
38786;BME280;24535;45.508;12.252;2023-08-01T14:35:10;100155.91;;;31.03;54.53
38786;BME280;24535;45.508;12.252;2023-08-01T14:46:38;100132.75;;;31.01;54.05
38786;BME280;24535;45.508;12.252;2023-08-01T14:49:18;100137.38;;;31.00;54.74
38786;BME280;24535;45.508;12.252;2023-08-01T14:51:44;100144.13;;;30.98;54.90
38786;BME280;24535;45.508;12.252;2023-08-01T14:54:09;100132.91;;;30.94;55.05
38786;BME280;24535;45.508;12.252;2023-08-01T14:56:52;100122.56;;;30.91;55.28
38786;BME280;24535;45.508;12.252;2023-08-01T15:15:46;100098.09;;;30.74;55.85
38786;BME280;24535;45.508;12.252;2023-08-01T15:20:47;100090.44;;;30.71;55.65
38786;BME280;24535;45.508;12.252;2023-08-01T15:50:38;100081.25;;;30.56;58.59
38786;BME280;24535;45.508;12.252;2023-08-01T16:57:45;100099.16;;;30.35;57.37
38786;BME280;24535;45.508;12.252;2023-08-01T17:02:57;100096.66;;;30.33;57.36
38786;BME280;24535;45.508;12.252;2023-08-01T17:17:26;100105.44;;;30.18;56.89
38786;BME280;24535;45.508;12.252;2023-08-01T17:26:00;100122.69;;;30.12;55.91
38786;BME280;24535;45.508;12.252;2023-08-01T17:53:05;100139.19;;;29.94;58.09
38786;BME280;24535;45.508;12.252;2023-08-01T18:11:48;100144.03;;;29.75;58.86
38786;BME280;24535;45.508;12.252;2023-08-01T18:14:13;100149.69;;;29.73;59.65
38786;BME280;24535;45.508;12.252;2023-08-01T18:16:38;100151.84;;;29.71;59.05
38786;BME280;24535;45.508;12.252;2023-08-01T18:21:54;100155.03;;;29.68;59.43
38786;BME280;24535;45.508;12.252;2023-08-01T18:33:00;100182.38;;;29.50;60.08
38786;BME280;24535;45.508;12.252;2023-08-01T18:48:51;100216.06;;;29.14;58.90
38786;BME280;24535;45.508;12.252;2023-08-01T19:03:28;100242.22;;;28.96;59.63
38786;BME280;24535;45.508;12.252;2023-08-01T19:05:53;100244.34;;;28.94;59.39
38786;BME280;24535;45.508;12.252;2023-08-01T19:08:19;100254.03;;;28.90;59.49
38786;BME280;24535;45.508;12.252;2023-08-01T19:10:44;100260.50;;;28.89;59.67
38786;BME280;24535;45.508;12.252;2023-08-01T19:13:10;100266.97;;;28.88;59.35
38786;BME280;24535;45.508;12.252;2023-08-01T19:15:47;100279.13;;;28.86;59.56
38786;BME280;24535;45.508;12.252;2023-08-01T19:24:12;100286.44;;;28.73;57.35
38786;BME280;24535;45.508;12.252;2023-08-01T19:30:00;100284.25;;;28.52;56.31
38786;BME280;24535;45.508;12.252;2023-08-01T19:32:26;100293.78;;;28.43;56.58
38786;BME280;24535;45.508;12.252;2023-08-01T19:34:51;100307.63;;;28.34;56.88
38786;BME280;24535;45.508;12.252;2023-08-01T19:37:17;100298.97;;;28.26;57.13
38786;BME280;24535;45.508;12.252;2023-08-01T19:44:53;100306.94;;;28.09;57.01
38786;BME280;24535;45.508;12.252;2023-08-01T19:47:18;100321.16;;;28.04;57.79
38786;BME280;24535;45.508;12.252;2023-08-01T19:50:04;100321.22;;;27.98;57.51
38786;BME280;24535;45.508;12.252;2023-08-01T19:58:25;100329.53;;;27.84;57.40
38786;BME280;24535;45.508;12.252;2023-08-01T20:00:50;100329.97;;;27.81;57.51
38786;BME280;24535;45.508;12.252;2023-08-01T20:09:14;100327.31;;;27.75;57.85
38786;BME280;24535;45.508;12.252;2023-08-01T20:11:39;100338.81;;;27.70;58.24
38786;BME280;24535;45.508;12.252;2023-08-01T20:19:45;100352.47;;;27.57;58.56
38786;BME280;24535;45.508;12.252;2023-08-01T20:34:50;100362.00;;;27.41;59.38
38786;BME280;24535;45.508;12.252;2023-08-01T20:46:07;100374.66;;;27.22;59.04
38786;BME280;24535;45.508;12.252;2023-08-01T21:09:49;100419.75;;;26.97;58.70
38786;BME280;24535;45.508;12.252;2023-08-01T21:15:18;100417.31;;;26.88;58.43
38786;BME280;24535;45.508;12.252;2023-08-01T21:17:54;100409.03;;;26.83;58.51
38786;BME280;24535;45.508;12.252;2023-08-01T21:20:29;100412.97;;;26.81;58.11
38786;BME280;24535;45.508;12.252;2023-08-01T21:37:00;100423.56;;;26.51;59.14
38786;BME280;24535;45.508;12.252;2023-08-01T21:45:04;100449.16;;;26.35;59.43
38786;BME280;24535;45.508;12.252;2023-08-01T22:17:30;100489.31;;;25.92;60.17
38786;BME280;24535;45.508;12.252;2023-08-01T22:22:30;100473.34;;;25.90;60.35
38786;BME280;24535;45.508;12.252;2023-08-01T22:39:36;100475.84;;;25.78;60.38
38786;BME280;24535;45.508;12.252;2023-08-01T23:01:58;100483.53;;;25.81;60.79
38786;BME280;24535;45.508;12.252;2023-08-01T23:04:32;100480.19;;;25.79;60.80
38786;BME280;24535;45.508;12.252;2023-08-01T23:27:22;100503.25;;;25.69;59.56
38786;BME280;24535;45.508;12.252;2023-08-01T23:29:50;100494.50;;;25.67;59.81
38786;BME280;24535;45.508;12.252;2023-08-01T23:32:16;100495.72;;;25.64;59.81
38786;BME280;24535;45.508;12.252;2023-08-01T23:34:41;100500.31;;;25.63;59.84
38786;BME280;24535;45.508;12.252;2023-08-01T23:37:06;100502.41;;;25.61;59.97
38786;BME280;24535;45.508;12.252;2023-08-01T23:39:32;100505.28;;;25.60;59.69
38786;BME280;24535;45.508;12.252;2023-08-01T23:41:57;100510.69;;;25.60;59.62
38786;BME280;24535;45.508;12.252;2023-08-01T23:44:22;100505.28;;;25.60;59.89
38786;BME280;24535;45.508;12.252;2023-08-01T23:46:47;100506.31;;;25.59;59.89
38786;BME280;24535;45.508;12.252;2023-08-01T23:49:13;100505.91;;;25.62;59.57
38786;BME280;24535;45.508;12.252;2023-08-01T23:51:38;100511.31;;;25.62;59.72
38786;BME280;24535;45.508;12.252;2023-08-01T23:54:03;100513.81;;;25.63;59.94
38786;BME280;24535;45.508;12.252;2023-08-01T23:56:29;100513.38;;;25.67;60.22
38786;BME280;24535;45.508;12.252;2023-08-01T23:58:54;100514.63;;;25.71;59.50
